sensor_id;sensor_type;location;lat;lon;timestamp;pressure;altitude;pressure_sealevel;temperature;humidity
73558;BME280;61829;53.286;10.434;2022-07-22T00:02:15;101402.00;;;19.27;83.48
73558;BME280;61829;53.286;10.434;2022-07-22T00:04:41;101397.97;;;19.30;83.77
73558;BME280;61829;53.286;10.434;2022-07-22T00:07:07;101401.56;;;19.31;83.00
73558;BME280;61829;53.286;10.434;2022-07-22T00:09:33;101393.38;;;19.31;83.14
73558;BME280;61829;53.286;10.434;2022-07-22T00:11:59;101399.06;;;19.29;83.44
73558;BME280;61829;53.286;10.434;2022-07-22T00:14:24;101406.44;;;19.28;83.29
73558;BME280;61829;53.286;10.434;2022-07-22T00:16:50;101403.22;;;19.32;82.77
73558;BME280;61829;53.286;10.434;2022-07-22T00:19:16;101402.41;;;19.31;83.35
73558;BME280;61829;53.286;10.434;2022-07-22T00:21:42;101402.16;;;19.33;83.48
73558;BME280;61829;53.286;10.434;2022-07-22T00:24:08;101395.66;;;19.34;82.71
73558;BME280;61829;53.286;10.434;2022-07-22T00:26:34;101395.66;;;19.34;83.50
73558;BME280;61829;53.286;10.434;2022-07-22T00:29:00;101400.88;;;19.35;83.43
73558;BME280;61829;53.286;10.434;2022-07-22T00:31:25;101390.78;;;19.36;82.53
73558;BME280;61829;53.286;10.434;2022-07-22T00:33:51;101397.94;;;19.37;83.44
73558;BME280;61829;53.286;10.434;2022-07-22T00:36:17;101388.66;;;19.38;84.13
73558;BME280;61829;53.286;10.434;2022-07-22T00:38:43;101389.72;;;19.37;84.86
73558;BME280;61829;53.286;10.434;2022-07-22T00:41:08;101392.00;;;19.40;84.87
73558;BME280;61829;53.286;10.434;2022-07-22T00:43:54;101399.94;;;19.41;85.69
73558;BME280;61829;53.286;10.434;2022-07-22T00:46:21;101398.28;;;19.40;85.44
73558;BME280;61829;53.286;10.434;2022-07-22T00:48:47;101393.28;;;19.37;85.05
73558;BME280;61829;53.286;10.434;2022-07-22T00:51:13;101394.13;;;19.38;85.92
73558;BME280;61829;53.286;10.434;2022-07-22T00:53:39;101397.06;;;19.36;85.90
73558;BME280;61829;53.286;10.434;2022-07-22T00:56:05;101399.78;;;19.36;85.82
73558;BME280;61829;53.286;10.434;2022-07-22T00:58:31;101399.59;;;19.38;86.92
73558;BME280;61829;53.286;10.434;2022-07-22T01:00:57;101397.06;;;19.36;86.72
73558;BME280;61829;53.286;10.434;2022-07-22T01:03:26;101397.78;;;19.32;87.24
73558;BME280;61829;53.286;10.434;2022-07-22T01:05:52;101395.25;;;19.30;86.84
73558;BME280;61829;53.286;10.434;2022-07-22T01:08:18;101393.59;;;19.29;88.15
73558;BME280;61829;53.286;10.434;2022-07-22T01:10:44;101393.59;;;19.29;87.75
73558;BME280;61829;53.286;10.434;2022-07-22T01:13:09;101393.38;;;19.31;88.32
73558;BME280;61829;53.286;10.434;2022-07-22T01:15:35;101394.41;;;19.29;88.53
73558;BME280;61829;53.286;10.434;2022-07-22T01:18:01;101398.84;;;19.31;88.04
73558;BME280;61829;53.286;10.434;2022-07-22T01:20:27;101393.59;;;19.29;87.69
73558;BME280;61829;53.286;10.434;2022-07-22T01:22:53;101395.97;;;19.25;87.64
73558;BME280;61829;53.286;10.434;2022-07-22T01:25:18;101400.81;;;19.23;87.28
73558;BME280;61829;53.286;10.434;2022-07-22T01:27:44;101390.09;;;19.22;87.47
73558;BME280;61829;53.286;10.434;2022-07-22T01:30:12;101404.63;;;19.22;87.28
73558;BME280;61829;53.286;10.434;2022-07-22T01:32:38;101392.00;;;19.21;87.84
73558;BME280;61829;53.286;10.434;2022-07-22T01:35:04;101397.25;;;19.23;87.36
73558;BME280;61829;53.286;10.434;2022-07-22T01:37:33;101399.97;;;19.23;88.47
73558;BME280;61829;53.286;10.434;2022-07-22T01:39:59;101393.06;;;19.20;88.35
73558;BME280;61829;53.286;10.434;2022-07-22T01:42:25;101401.25;;;19.20;87.09
73558;BME280;61829;53.286;10.434;2022-07-22T01:44:51;101390.56;;;19.19;87.50
73558;BME280;61829;53.286;10.434;2022-07-22T01:47:17;101400.66;;;19.18;88.34
73558;BME280;61829;53.286;10.434;2022-07-22T01:49:43;101401.47;;;19.19;88.42
73558;BME280;61829;53.286;10.434;2022-07-22T01:52:10;101396.56;;;19.09;87.78
73558;BME280;61829;53.286;10.434;2022-07-22T01:54:35;101425.38;;;18.87;86.19
73558;BME280;61829;53.286;10.434;2022-07-22T01:57:01;101417.09;;;18.68;86.86
73558;BME280;61829;53.286;10.434;2022-07-22T01:59:29;101425.44;;;18.55;86.66
73558;BME280;61829;53.286;10.434;2022-07-22T02:01:55;101431.06;;;18.35;85.36
73558;BME280;61829;53.286;10.434;2022-07-22T02:04:20;101432.09;;;18.34;85.84
73558;BME280;61829;53.286;10.434;2022-07-22T02:06:46;101425.81;;;18.33;86.80
73558;BME280;61829;53.286;10.434;2022-07-22T02:09:12;101432.94;;;18.34;86.42
73558;BME280;61829;53.286;10.434;2022-07-22T02:11:38;101438.78;;;18.38;86.19
73558;BME280;61829;53.286;10.434;2022-07-22T02:14:05;101432.94;;;18.34;86.76
73558;BME280;61829;53.286;10.434;2022-07-22T02:16:31;101437.41;;;18.29;86.06
73558;BME280;61829;53.286;10.434;2022-07-22T02:18:56;101439.13;;;18.23;86.17
73558;BME280;61829;53.286;10.434;2022-07-22T02:21:22;101438.94;;;18.18;86.36
73558;BME280;61829;53.286;10.434;2022-07-22T02:23:48;101441.44;;;18.20;86.14
73558;BME280;61829;53.286;10.434;2022-07-22T02:26:14;101444.84;;;18.15;86.08
73558;BME280;61829;53.286;10.434;2022-07-22T02:28:39;101448.84;;;18.12;86.00
73558;BME280;61829;53.286;10.434;2022-07-22T02:31:05;101446.94;;;18.13;87.11
73558;BME280;61829;53.286;10.434;2022-07-22T02:33:31;101449.03;;;18.11;87.16
73558;BME280;61829;53.286;10.434;2022-07-22T02:35:57;101449.31;;;18.03;86.26
73558;BME280;61829;53.286;10.434;2022-07-22T02:38:23;101454.38;;;17.99;85.98
73558;BME280;61829;53.286;10.434;2022-07-22T02:40:49;101448.91;;;17.99;86.18
73558;BME280;61829;53.286;10.434;2022-07-22T02:43:15;101451.63;;;17.99;84.96
73558;BME280;61829;53.286;10.434;2022-07-22T02:45:41;101446.00;;;17.94;85.87
73558;BME280;61829;53.286;10.434;2022-07-22T02:48:06;101452.78;;;17.85;84.44
73558;BME280;61829;53.286;10.434;2022-07-22T02:50:32;101457.19;;;17.79;83.77
73558;BME280;61829;53.286;10.434;2022-07-22T02:52:59;101455.09;;;17.74;83.86
73558;BME280;61829;53.286;10.434;2022-07-22T02:55:24;101461.41;;;17.68;84.38
73558;BME280;61829;53.286;10.434;2022-07-22T02:57:50;101467.53;;;17.64;84.29
73558;BME280;61829;53.286;10.434;2022-07-22T03:00:16;101466.66;;;17.63;85.76
73558;BME280;61829;53.286;10.434;2022-07-22T03:02:42;101474.00;;;17.63;84.81
73558;BME280;61829;53.286;10.434;2022-07-22T03:05:08;101471.09;;;17.58;85.34
73558;BME280;61829;53.286;10.434;2022-07-22T03:07:34;101478.44;;;17.57;85.67
73558;BME280;61829;53.286;10.434;2022-07-22T03:10:01;101479.94;;;17.53;84.97
73558;BME280;61829;53.286;10.434;2022-07-22T03:12:27;101483.72;;;17.45;84.64
73558;BME280;61829;53.286;10.434;2022-07-22T03:14:53;101481.63;;;17.41;84.87
73558;BME280;61829;53.286;10.434;2022-07-22T03:17:18;101485.00;;;17.36;83.64
73558;BME280;61829;53.286;10.434;2022-07-22T03:19:45;101493.81;;;17.38;84.95
73558;BME280;61829;53.286;10.434;2022-07-22T03:22:10;101496.75;;;17.37;84.61
73558;BME280;61829;53.286;10.434;2022-07-22T03:24:36;101499.66;;;17.35;84.54
73558;BME280;61829;53.286;10.434;2022-07-22T03:27:02;101495.09;;;17.22;84.62
73558;BME280;61829;53.286;10.434;2022-07-22T03:29:27;101503.69;;;17.19;85.65
73558;BME280;61829;53.286;10.434;2022-07-22T03:31:53;101495.31;;;17.14;84.53
73558;BME280;61829;53.286;10.434;2022-07-22T03:34:19;101507.28;;;17.13;85.11
73558;BME280;61829;53.286;10.434;2022-07-22T03:36:45;101495.34;;;17.08;85.29
73558;BME280;61829;53.286;10.434;2022-07-22T03:39:10;101493.03;;;17.04;85.58
73558;BME280;61829;53.286;10.434;2022-07-22T03:41:36;101500.16;;;17.05;85.82
73558;BME280;61829;53.286;10.434;2022-07-22T03:44:02;101506.22;;;17.08;85.72
73558;BME280;61829;53.286;10.434;2022-07-22T03:46:28;101506.63;;;17.11;85.59
73558;BME280;61829;53.286;10.434;2022-07-22T03:48:54;101520.06;;;17.13;86.08
73558;BME280;61829;53.286;10.434;2022-07-22T03:51:19;101516.91;;;17.09;86.54
73558;BME280;61829;53.286;10.434;2022-07-22T03:53:45;101516.69;;;17.11;84.58
73558;BME280;61829;53.286;10.434;2022-07-22T03:56:11;101524.44;;;17.14;85.17
73558;BME280;61829;53.286;10.434;2022-07-22T03:58:37;101523.19;;;17.16;85.45
73558;BME280;61829;53.286;10.434;2022-07-22T04:01:03;101525.50;;;17.19;85.92
73558;BME280;61829;53.286;10.434;2022-07-22T04:03:29;101522.78;;;17.13;83.84
73558;BME280;61829;53.286;10.434;2022-07-22T04:05:55;101520.91;;;17.13;83.80
73558;BME280;61829;53.286;10.434;2022-07-22T04:08:20;101517.31;;;17.06;84.74
73558;BME280;61829;53.286;10.434;2022-07-22T04:10:46;101518.38;;;16.98;84.51
73558;BME280;61829;53.286;10.434;2022-07-22T04:13:12;101506.03;;;17.02;83.82
73558;BME280;61829;53.286;10.434;2022-07-22T04:15:38;101516.09;;;17.02;84.18
73558;BME280;61829;53.286;10.434;2022-07-22T04:18:04;101515.03;;;17.03;83.99
73558;BME280;61829;53.286;10.434;2022-07-22T04:20:29;101515.03;;;17.03;84.22
73558;BME280;61829;53.286;10.434;2022-07-22T04:22:55;101525.50;;;16.99;84.11
73558;BME280;61829;53.286;10.434;2022-07-22T04:25:21;101517.34;;;16.99;83.93
73558;BME280;61829;53.286;10.434;2022-07-22T04:27:47;101521.09;;;16.98;83.83
73558;BME280;61829;53.286;10.434;2022-07-22T04:30:13;101529.91;;;17.00;84.42
73558;BME280;61829;53.286;10.434;2022-07-22T04:32:39;101525.28;;;17.01;84.46
73558;BME280;61829;53.286;10.434;2022-07-22T04:35:05;101527.16;;;17.00;84.17
73558;BME280;61829;53.286;10.434;2022-07-22T04:37:31;101530.75;;;16.94;84.30
73558;BME280;61829;53.286;10.434;2022-07-22T04:39:57;101534.53;;;16.93;85.03
73558;BME280;61829;53.286;10.434;2022-07-22T04:42:22;101531.38;;;16.96;85.20
73558;BME280;61829;53.286;10.434;2022-07-22T04:44:48;101543.94;;;16.97;83.81
73558;BME280;61829;53.286;10.434;2022-07-22T04:47:14;101536.00;;;16.96;84.49
73558;BME280;61829;53.286;10.434;2022-07-22T04:49:40;101533.25;;;16.89;84.18
73558;BME280;61829;53.286;10.434;2022-07-22T04:52:06;101539.94;;;16.87;84.27
73558;BME280;61829;53.286;10.434;2022-07-22T04:54:35;101546.25;;;16.94;85.43
73558;BME280;61829;53.286;10.434;2022-07-22T04:57:00;101544.56;;;16.93;84.69
73558;BME280;61829;53.286;10.434;2022-07-22T04:59:26;101552.53;;;16.94;84.95
73558;BME280;61829;53.286;10.434;2022-07-22T05:01:52;101549.38;;;16.97;85.47
73558;BME280;61829;53.286;10.434;2022-07-22T05:04:18;101548.75;;;16.95;85.26
73558;BME280;61829;53.286;10.434;2022-07-22T05:06:44;101550.84;;;16.93;84.79
73558;BME280;61829;53.286;10.434;2022-07-22T05:09:10;101554.59;;;16.92;85.51
73558;BME280;61829;53.286;10.434;2022-07-22T05:11:35;101554.81;;;16.97;85.15
73558;BME280;61829;53.286;10.434;2022-07-22T05:14:01;101553.56;;;17.00;84.55
73558;BME280;61829;53.286;10.434;2022-07-22T05:16:27;101559.22;;;16.98;84.01
73558;BME280;61829;53.286;10.434;2022-07-22T05:18:53;101556.06;;;16.95;82.70
73558;BME280;61829;53.286;10.434;2022-07-22T05:21:19;101557.97;;;16.94;83.78
73558;BME280;61829;53.286;10.434;2022-07-22T05:23:45;101562.56;;;16.94;83.70
73558;BME280;61829;53.286;10.434;2022-07-22T05:26:11;101561.94;;;16.98;85.27
73558;BME280;61829;53.286;10.434;2022-07-22T05:28:36;101561.75;;;17.00;84.11
73558;BME280;61829;53.286;10.434;2022-07-22T05:31:02;101564.88;;;17.03;83.79
73558;BME280;61829;53.286;10.434;2022-07-22T05:33:28;101570.75;;;17.07;85.67
73558;BME280;61829;53.286;10.434;2022-07-22T05:35:54;101564.03;;;17.10;84.58
73558;BME280;61829;53.286;10.434;2022-07-22T05:38:20;101573.25;;;17.15;85.70
73558;BME280;61829;53.286;10.434;2022-07-22T05:40:46;101566.53;;;17.18;84.56
73558;BME280;61829;53.286;10.434;2022-07-22T05:43:11;101559.22;;;17.18;84.62
73558;BME280;61829;53.286;10.434;2022-07-22T05:45:37;101564.69;;;17.18;83.95
73558;BME280;61829;53.286;10.434;2022-07-22T05:48:03;101568.00;;;17.20;82.66
73558;BME280;61829;53.286;10.434;2022-07-22T05:50:29;101571.78;;;17.26;83.93
73558;BME280;61829;53.286;10.434;2022-07-22T05:52:55;101574.50;;;17.26;82.75
73558;BME280;61829;53.286;10.434;2022-07-22T05:55:21;101570.53;;;17.28;83.32
73558;BME280;61829;53.286;10.434;2022-07-22T05:57:47;101573.06;;;17.30;82.90
73558;BME280;61829;53.286;10.434;2022-07-22T06:00:14;101577.66;;;17.30;82.06
73558;BME280;61829;53.286;10.434;2022-07-22T06:02:41;101581.00;;;17.32;82.05
73558;BME280;61829;53.286;10.434;2022-07-22T06:05:09;101577.25;;;17.33;81.86
73558;BME280;61829;53.286;10.434;2022-07-22T06:07:35;101579.97;;;17.33;81.88
73558;BME280;61829;53.286;10.434;2022-07-22T06:10:01;101575.78;;;17.30;82.58
73558;BME280;61829;53.286;10.434;2022-07-22T06:12:26;101576.78;;;17.29;82.52
73558;BME280;61829;53.286;10.434;2022-07-22T06:14:52;101579.94;;;17.26;81.96
73558;BME280;61829;53.286;10.434;2022-07-22T06:17:18;101576.63;;;17.24;81.55
73558;BME280;61829;53.286;10.434;2022-07-22T06:19:44;101581.19;;;17.23;81.91
73558;BME280;61829;53.286;10.434;2022-07-22T06:22:09;101577.88;;;17.21;80.71
73558;BME280;61829;53.286;10.434;2022-07-22T06:24:35;101578.50;;;17.17;82.21
73558;BME280;61829;53.286;10.434;2022-07-22T06:27:01;101579.97;;;17.19;81.70
73558;BME280;61829;53.286;10.434;2022-07-22T06:29:27;101585.19;;;17.21;81.77
73558;BME280;61829;53.286;10.434;2022-07-22T06:31:53;101590.25;;;17.24;81.38
73558;BME280;61829;53.286;10.434;2022-07-22T06:34:19;101583.72;;;17.25;81.84
73558;BME280;61829;53.286;10.434;2022-07-22T06:36:45;101586.84;;;17.35;82.06
73558;BME280;61829;53.286;10.434;2022-07-22T06:39:11;101584.34;;;17.34;81.64
73558;BME280;61829;53.286;10.434;2022-07-22T06:41:37;101587.88;;;17.41;81.19
73558;BME280;61829;53.286;10.434;2022-07-22T06:44:03;101589.78;;;17.47;81.69
73558;BME280;61829;53.286;10.434;2022-07-22T06:46:29;101588.09;;;17.53;80.41
73558;BME280;61829;53.286;10.434;2022-07-22T06:48:55;101583.28;;;17.61;79.97
73558;BME280;61829;53.286;10.434;2022-07-22T06:51:21;101583.47;;;17.66;80.13
73558;BME280;61829;53.286;10.434;2022-07-22T06:53:47;101591.00;;;17.71;79.27
73558;BME280;61829;53.286;10.434;2022-07-22T06:56:13;101588.91;;;17.86;80.15
73558;BME280;61829;53.286;10.434;2022-07-22T06:58:38;101590.94;;;18.04;79.92
73558;BME280;61829;53.286;10.434;2022-07-22T07:01:04;101588.94;;;18.25;78.82
73558;BME280;61829;53.286;10.434;2022-07-22T07:03:30;101589.47;;;18.47;78.78
73558;BME280;61829;53.286;10.434;2022-07-22T07:05:56;101584.75;;;18.60;76.82
73558;BME280;61829;53.286;10.434;2022-07-22T07:08:22;101590.34;;;18.72;74.88
73558;BME280;61829;53.286;10.434;2022-07-22T07:10:48;101588.34;;;18.93;76.51
73558;BME280;61829;53.286;10.434;2022-07-22T07:13:14;101588.06;;;19.26;74.55
73558;BME280;61829;53.286;10.434;2022-07-22T07:15:39;101586.97;;;19.52;72.19
73558;BME280;61829;53.286;10.434;2022-07-22T07:18:05;101596.78;;;19.85;69.12
73558;BME280;61829;53.286;10.434;2022-07-22T07:20:31;101588.09;;;20.06;69.52
73558;BME280;61829;53.286;10.434;2022-07-22T07:23:00;101591.47;;;20.38;70.82
73558;BME280;61829;53.286;10.434;2022-07-22T07:25:26;101593.81;;;20.53;67.64
73558;BME280;61829;53.286;10.434;2022-07-22T07:27:53;101589.97;;;20.73;68.64
73558;BME280;61829;53.286;10.434;2022-07-22T07:30:18;101588.91;;;20.97;67.01
73558;BME280;61829;53.286;10.434;2022-07-22T07:32:47;101581.06;;;20.89;66.91
73558;BME280;61829;53.286;10.434;2022-07-22T07:35:13;101583.28;;;20.80;67.12
73558;BME280;61829;53.286;10.434;2022-07-22T07:37:39;101585.78;;;20.70;65.96
73558;BME280;61829;53.286;10.434;2022-07-22T07:40:06;101581.31;;;20.57;66.28
73558;BME280;61829;53.286;10.434;2022-07-22T07:42:32;101593.44;;;20.50;66.54
73558;BME280;61829;53.286;10.434;2022-07-22T07:45:00;101589.09;;;20.42;67.59
73558;BME280;61829;53.286;10.434;2022-07-22T07:47:26;101593.13;;;20.39;66.89
73558;BME280;61829;53.286;10.434;2022-07-22T07:49:52;101603.72;;;20.36;67.59
73558;BME280;61829;53.286;10.434;2022-07-22T07:52:18;101602.88;;;20.35;67.45
73558;BME280;61829;53.286;10.434;2022-07-22T07:54:44;101604.25;;;20.26;68.17
73558;BME280;61829;53.286;10.434;2022-07-22T07:57:11;101603.50;;;20.19;69.16
73558;BME280;61829;53.286;10.434;2022-07-22T07:59:38;101615.44;;;20.06;68.97
73558;BME280;61829;53.286;10.434;2022-07-22T08:02:04;101617.59;;;20.04;69.59
73558;BME280;61829;53.286;10.434;2022-07-22T08:04:31;101623.84;;;19.93;67.34
73558;BME280;61829;53.286;10.434;2022-07-22T08:06:57;101622.75;;;19.94;67.93
73558;BME280;61829;53.286;10.434;2022-07-22T08:09:23;101619.69;;;19.84;68.57
73558;BME280;61829;53.286;10.434;2022-07-22T08:11:50;101631.88;;;19.88;69.89
73558;BME280;61829;53.286;10.434;2022-07-22T08:14:16;101630.28;;;19.80;67.60
73558;BME280;61829;53.286;10.434;2022-07-22T08:16:42;101633.38;;;19.84;68.54
73558;BME280;61829;53.286;10.434;2022-07-22T08:19:08;101623.25;;;19.84;66.59
73558;BME280;61829;53.286;10.434;2022-07-22T08:21:34;101629.97;;;19.88;65.46
73558;BME280;61829;53.286;10.434;2022-07-22T08:24:00;101633.63;;;19.82;66.38
73558;BME280;61829;53.286;10.434;2022-07-22T08:26:26;101642.56;;;19.89;68.30
73558;BME280;61829;53.286;10.434;2022-07-22T08:28:52;101639.16;;;19.94;66.01
73558;BME280;61829;53.286;10.434;2022-07-22T08:31:18;101637.50;;;19.93;66.32
73558;BME280;61829;53.286;10.434;2022-07-22T08:33:44;101639.25;;;19.87;64.74
73558;BME280;61829;53.286;10.434;2022-07-22T08:36:10;101649.78;;;19.84;65.21
73558;BME280;61829;53.286;10.434;2022-07-22T08:38:36;101648.25;;;19.69;65.44
73558;BME280;61829;53.286;10.434;2022-07-22T08:41:04;101650.78;;;19.71;66.12
73558;BME280;61829;53.286;10.434;2022-07-22T08:43:34;101645.56;;;19.63;66.79
73558;BME280;61829;53.286;10.434;2022-07-22T08:46:02;101655.66;;;19.62;67.27
73558;BME280;61829;53.286;10.434;2022-07-22T08:48:28;101655.66;;;19.62;66.53
73558;BME280;61829;53.286;10.434;2022-07-22T08:50:55;101657.69;;;19.48;65.26
73558;BME280;61829;53.286;10.434;2022-07-22T08:53:21;101662.31;;;19.48;65.70
73558;BME280;61829;53.286;10.434;2022-07-22T08:55:48;101663.81;;;19.44;66.88
73558;BME280;61829;53.286;10.434;2022-07-22T08:58:14;101662.31;;;19.48;66.52
73558;BME280;61829;53.286;10.434;2022-07-22T09:00:40;101662.06;;;19.49;66.62
73558;BME280;61829;53.286;10.434;2022-07-22T09:03:23;101663.47;;;19.59;67.03
73558;BME280;61829;53.286;10.434;2022-07-22T09:05:53;101661.78;;;19.58;66.38
73558;BME280;61829;53.286;10.434;2022-07-22T09:08:20;101661.41;;;19.54;67.65
73558;BME280;61829;53.286;10.434;2022-07-22T09:10:47;101661.97;;;19.63;66.50
73558;BME280;61829;53.286;10.434;2022-07-22T09:13:14;101650.97;;;19.69;65.74
73558;BME280;61829;53.286;10.434;2022-07-22T09:15:49;101655.34;;;19.77;65.57
73558;BME280;61829;53.286;10.434;2022-07-22T09:18:15;101650.03;;;19.82;65.87
73558;BME280;61829;53.286;10.434;2022-07-22T09:20:42;101658.31;;;19.94;66.45
73558;BME280;61829;53.286;10.434;2022-07-22T09:23:17;101650.84;;;20.01;65.62
73558;BME280;61829;53.286;10.434;2022-07-22T09:25:46;101653.09;;;20.11;63.93
73558;BME280;61829;53.286;10.434;2022-07-22T09:28:15;101661.22;;;20.17;62.49
73558;BME280;61829;53.286;10.434;2022-07-22T09:30:54;101653.53;;;20.26;63.29
73558;BME280;61829;53.286;10.434;2022-07-22T09:33:21;101651.56;;;20.33;62.30
73558;BME280;61829;53.286;10.434;2022-07-22T09:35:48;101654.81;;;20.42;61.63
73558;BME280;61829;53.286;10.434;2022-07-22T09:38:15;101638.28;;;20.49;60.28
73558;BME280;61829;53.286;10.434;2022-07-22T09:40:47;101642.31;;;20.46;59.76
73558;BME280;61829;53.286;10.434;2022-07-22T09:43:16;101649.09;;;20.44;58.44
73558;BME280;61829;53.286;10.434;2022-07-22T09:45:50;101644.78;;;20.54;57.81
73558;BME280;61829;53.286;10.434;2022-07-22T09:48:18;101647.44;;;20.61;60.21
73558;BME280;61829;53.286;10.434;2022-07-22T09:50:45;101649.00;;;20.69;59.32
73558;BME280;61829;53.286;10.434;2022-07-22T09:53:11;101655.31;;;20.69;57.25
73558;BME280;61829;53.286;10.434;2022-07-22T09:55:38;101655.78;;;20.66;57.27
73558;BME280;61829;53.286;10.434;2022-07-22T09:58:04;101659.25;;;20.73;58.49
73558;BME280;61829;53.286;10.434;2022-07-22T10:00:31;101652.97;;;20.73;57.72
73558;BME280;61829;53.286;10.434;2022-07-22T10:03:02;101658.50;;;20.66;59.59
73558;BME280;61829;53.286;10.434;2022-07-22T10:05:31;101658.03;;;20.69;58.61
73558;BME280;61829;53.286;10.434;2022-07-22T10:07:57;101659.16;;;20.80;58.89
73558;BME280;61829;53.286;10.434;2022-07-22T10:10:25;101656.94;;;20.89;58.95
73558;BME280;61829;53.286;10.434;2022-07-22T10:12:53;101661.06;;;20.79;58.04
73558;BME280;61829;53.286;10.434;2022-07-22T10:15:21;101670.03;;;20.87;58.01
73558;BME280;61829;53.286;10.434;2022-07-22T10:17:49;101672.28;;;20.78;57.03
73558;BME280;61829;53.286;10.434;2022-07-22T10:20:18;101671.53;;;20.71;58.38
73558;BME280;61829;53.286;10.434;2022-07-22T10:22:46;101672.16;;;20.54;57.62
73558;BME280;61829;53.286;10.434;2022-07-22T10:25:13;101669.41;;;20.54;58.00
73558;BME280;61829;53.286;10.434;2022-07-22T10:30:26;101680.41;;;20.66;58.17
73558;BME280;61829;53.286;10.434;2022-07-22T10:33:10;101680.03;;;20.81;57.62
73558;BME280;61829;53.286;10.434;2022-07-22T10:38:17;101682.22;;;21.02;55.42
73558;BME280;61829;53.286;10.434;2022-07-22T10:41:05;101680.25;;;21.10;56.26
73558;BME280;61829;53.286;10.434;2022-07-22T10:43:46;101683.44;;;21.06;55.25
73558;BME280;61829;53.286;10.434;2022-07-22T10:46:48;101689.13;;;20.93;53.49
73558;BME280;61829;53.286;10.434;2022-07-22T10:49:17;101689.44;;;20.85;55.50
73558;BME280;61829;53.286;10.434;2022-07-22T10:54:31;101682.88;;;20.86;53.93
73558;BME280;61829;53.286;10.434;2022-07-22T10:56:59;101675.88;;;20.90;54.54
73558;BME280;61829;53.286;10.434;2022-07-22T10:59:25;101674.59;;;20.93;55.06
73558;BME280;61829;53.286;10.434;2022-07-22T11:01:52;101678.19;;;21.05;55.10
73558;BME280;61829;53.286;10.434;2022-07-22T11:04:22;101671.53;;;21.13;52.41
73558;BME280;61829;53.286;10.434;2022-07-22T11:06:49;101665.13;;;21.19;52.91
73558;BME280;61829;53.286;10.434;2022-07-22T11:09:31;101668.34;;;21.27;53.68
73558;BME280;61829;53.286;10.434;2022-07-22T11:11:57;101669.94;;;21.35;52.22
73558;BME280;61829;53.286;10.434;2022-07-22T11:16:55;101669.28;;;21.51;52.43
73558;BME280;61829;53.286;10.434;2022-07-22T11:19:23;101654.00;;;21.67;52.15
73558;BME280;61829;53.286;10.434;2022-07-22T11:21:52;101660.06;;;21.81;51.12
73558;BME280;61829;53.286;10.434;2022-07-22T11:24:19;101654.09;;;21.96;49.31
73558;BME280;61829;53.286;10.434;2022-07-22T11:26:51;101658.13;;;22.17;50.05
73558;BME280;61829;53.286;10.434;2022-07-22T11:29:27;101659.94;;;22.23;50.87
73558;BME280;61829;53.286;10.434;2022-07-22T11:31:55;101661.81;;;22.34;50.61
73558;BME280;61829;53.286;10.434;2022-07-22T11:34:21;101660.72;;;22.35;48.93
73558;BME280;61829;53.286;10.434;2022-07-22T11:36:48;101664.75;;;22.45;48.63
73558;BME280;61829;53.286;10.434;2022-07-22T11:39:17;101668.19;;;22.52;49.68
73558;BME280;61829;53.286;10.434;2022-07-22T11:41:43;101680.50;;;22.49;50.35
73558;BME280;61829;53.286;10.434;2022-07-22T11:44:09;101670.94;;;22.52;50.40
73558;BME280;61829;53.286;10.434;2022-07-22T11:46:40;101675.28;;;22.36;49.66
73558;BME280;61829;53.286;10.434;2022-07-22T11:49:07;101674.47;;;22.24;51.00
73558;BME280;61829;53.286;10.434;2022-07-22T11:51:36;101678.78;;;22.31;49.40
73558;BME280;61829;53.286;10.434;2022-07-22T11:54:03;101675.09;;;22.14;50.70
73558;BME280;61829;53.286;10.434;2022-07-22T11:56:31;101677.84;;;22.26;49.50
73558;BME280;61829;53.286;10.434;2022-07-22T11:58:57;101677.19;;;22.35;50.05
73558;BME280;61829;53.286;10.434;2022-07-22T12:01:26;101679.06;;;22.47;49.23
73558;BME280;61829;53.286;10.434;2022-07-22T12:03:58;101679.13;;;22.35;48.26
73558;BME280;61829;53.286;10.434;2022-07-22T12:06:25;101674.22;;;22.37;47.57
73558;BME280;61829;53.286;10.434;2022-07-22T12:11:37;101674.63;;;22.57;47.27
73558;BME280;61829;53.286;10.434;2022-07-22T12:14:17;101666.09;;;22.71;48.39
73558;BME280;61829;53.286;10.434;2022-07-22T12:17:08;101666.19;;;22.76;48.66
73558;BME280;61829;53.286;10.434;2022-07-22T12:19:38;101667.59;;;22.78;48.31
73558;BME280;61829;53.286;10.434;2022-07-22T12:22:05;101670.75;;;22.70;48.50
73558;BME280;61829;53.286;10.434;2022-07-22T12:24:39;101665.94;;;22.77;48.30
73558;BME280;61829;53.286;10.434;2022-07-22T12:27:16;101665.94;;;22.77;49.02
73558;BME280;61829;53.286;10.434;2022-07-22T12:29:43;101676.06;;;22.89;47.45
73558;BME280;61829;53.286;10.434;2022-07-22T12:32:17;101675.81;;;22.90;47.08
73558;BME280;61829;53.286;10.434;2022-07-22T12:35:08;101674.94;;;23.01;45.08
73558;BME280;61829;53.286;10.434;2022-07-22T12:37:44;101672.13;;;23.13;45.86
73558;BME280;61829;53.286;10.434;2022-07-22T12:40:17;101674.72;;;23.20;45.59
73558;BME280;61829;53.286;10.434;2022-07-22T12:43:04;101669.03;;;23.26;46.89
73558;BME280;61829;53.286;10.434;2022-07-22T12:45:32;101662.81;;;23.31;46.20
73558;BME280;61829;53.286;10.434;2022-07-22T12:53:12;101653.13;;;23.28;47.59
73558;BME280;61829;53.286;10.434;2022-07-22T12:55:41;101669.56;;;23.40;45.78
73558;BME280;61829;53.286;10.434;2022-07-22T12:58:08;101665.97;;;23.40;45.35
73558;BME280;61829;53.286;10.434;2022-07-22T13:00:37;101664.47;;;23.49;44.86